Time;durP1;ratioP1;P1;durP2;ratioP2;P2;SDS_P1;SDS_P2;PMS_P1;PMS_P2;Temp;Humidity;BMP_temperature;BMP_pressure;BME280_temperature;BME280_humidity;BME280_pressure;Samples;Min_cycle;Max_cycle;Signal;HPM_P1;HPM_P2
2023/05/21 00:01:02;;;;;;;6.55;3.42;;;14.80;99.90;;;;;;5046962;28;20112;-73
2023/05/21 00:03:29;;;;;;;5.97;3.40;;;14.70;99.90;;;;;;5032863;28;20051;-73
2023/05/21 00:05:55;;;;;;;7.13;3.20;;;14.70;99.90;;;;;;5034882;28;20033;-73
2023/05/21 00:08:22;;;;;;;8.32;3.97;;;14.70;99.90;;;;;;5050522;28;20053;-73
2023/05/21 00:10:47;;;;;;;7.07;3.35;;;14.70;99.90;;;;;;5034746;28;20033;-73
2023/05/21 00:13:13;;;;;;;8.70;3.85;;;14.70;99.90;;;;;;5039659;28;20087;-73
2023/05/21 00:15:38;;;;;;;7.20;3.42;;;14.80;99.90;;;;;;5053497;28;20033;-73
2023/05/21 00:18:04;;;;;;;8.27;3.30;;;14.80;99.90;;;;;;5053270;28;20080;-73
2023/05/21 00:20:31;;;;;;;8.57;3.90;;;14.70;99.90;;;;;;5044727;28;20452;-73
2023/05/21 00:22:57;;;;;;;6.80;3.17;;;14.60;99.90;;;;;;5054431;28;20049;-73
2023/05/21 00:25:23;;;;;;;7.30;3.83;;;14.60;99.90;;;;;;5053043;28;20059;-73
2023/05/21 00:27:48;;;;;;;8.13;3.50;;;14.60;99.90;;;;;;5052909;28;20509;-73
2023/05/21 00:30:15;;;;;;;7.55;3.63;;;14.60;99.90;;;;;;5052385;28;20057;-73
2023/05/21 00:32:40;;;;;;;9.52;3.88;;;14.60;99.90;;;;;;5068832;28;20041;-73
2023/05/21 00:35:07;;;;;;;7.40;3.33;;;14.60;99.90;;;;;;5053328;28;20044;-73
2023/05/21 00:37:33;;;;;;;7.68;3.50;;;14.60;99.90;;;;;;5052802;28;20076;-73
2023/05/21 00:40:00;;;;;;;9.38;3.90;;;14.60;99.90;;;;;;5069448;28;20056;-73
2023/05/21 00:42:26;;;;;;;9.32;3.65;;;14.50;99.90;;;;;;5051870;28;20053;-73
2023/05/21 00:44:55;;;;;;;9.27;3.47;;;14.60;99.90;;;;;;5068419;28;20049;-73
2023/05/21 00:47:21;;;;;;;7.65;3.67;;;14.50;99.90;;;;;;5049844;28;21310;-73
2023/05/21 00:49:50;;;;;;;7.35;3.40;;;14.50;99.90;;;;;;5032699;28;20100;-73
2023/05/21 00:52:19;;;;;;;7.30;3.92;;;14.50;99.90;;;;;;5034462;28;20046;-73
2023/05/21 00:54:46;;;;;;;6.95;3.40;;;14.40;99.90;;;;;;5049847;28;20111;-73
2023/05/21 00:57:12;;;;;;;6.85;3.85;;;14.50;99.90;;;;;;5052439;28;20048;-73
2023/05/21 00:59:38;;;;;;;7.60;3.65;;;14.50;99.90;;;;;;5052410;28;20037;-73
2023/05/21 01:02:05;;;;;;;7.85;3.60;;;14.50;99.90;;;;;;5051550;28;20055;-73
2023/05/21 01:04:31;;;;;;;7.82;3.60;;;14.50;99.90;;;;;;5051460;28;20037;-73
2023/05/21 01:06:57;;;;;;;7.82;3.55;;;14.50;99.90;;;;;;5052534;28;20095;-73
2023/05/21 01:09:27;;;;;;;10.15;3.97;;;14.40;99.90;;;;;;5052189;28;20037;-73
2023/05/21 01:11:53;;;;;;;7.40;3.83;;;14.40;99.90;;;;;;5053741;28;20110;-73
2023/05/21 01:14:21;;;;;;;9.38;3.78;;;14.40;99.90;;;;;;5051308;28;20048;-73
2023/05/21 01:16:48;;;;;;;6.93;3.42;;;14.30;99.90;;;;;;5052216;28;20124;-72
2023/05/21 01:19:20;;;;;;;8.10;4.05;;;14.40;99.90;;;;;;5067812;28;20095;-73
2023/05/21 01:21:51;;;;;;;8.98;4.32;;;14.40;99.90;;;;;;5043963;28;20406;-73
2023/05/21 01:24:17;;;;;;;8.15;3.83;;;14.40;99.90;;;;;;5043390;28;20401;-73
2023/05/21 01:26:45;;;;;;;10.45;4.20;;;14.40;99.90;;;;;;5051850;28;20053;-73
2023/05/21 01:29:12;;;;;;;7.82;3.70;;;14.40;99.90;;;;;;5068701;28;20083;-73
2023/05/21 01:31:40;;;;;;;9.13;4.00;;;14.40;99.90;;;;;;5052440;28;20040;-73
2023/05/21 01:34:10;;;;;;;11.05;4.25;;;14.40;99.90;;;;;;5050798;28;20393;-73
2023/05/21 01:36:42;;;;;;;7.32;4.03;;;14.40;99.90;;;;;;5052341;28;20055;-73
2023/05/21 01:39:29;;;;;;;8.48;4.18;;;14.40;99.90;;;;;;5052125;28;20511;-73
2023/05/21 01:41:56;;;;;;;8.77;4.40;;;14.40;99.90;;;;;;5067324;28;20049;-73
2023/05/21 01:44:24;;;;;;;7.32;3.90;;;14.40;99.90;;;;;;5050275;28;20449;-72
2023/05/21 01:46:50;;;;;;;8.75;4.32;;;14.30;99.90;;;;;;5036667;28;20162;-72
2023/05/21 01:49:17;;;;;;;8.93;4.43;;;14.30;99.90;;;;;;5042825;28;20037;-73
2023/05/21 01:51:43;;;;;;;9.15;4.10;;;14.20;99.90;;;;;;5053159;28;20062;-73
2023/05/21 01:54:09;;;;;;;9.02;4.07;;;14.20;99.90;;;;;;5038688;28;20049;-72
2023/05/21 01:56:35;;;;;;;10.23;4.28;;;14.20;99.90;;;;;;5047326;28;20037;-72
2023/05/21 01:59:01;;;;;;;9.48;4.15;;;14.30;99.90;;;;;;5067828;28;20055;-72
2023/05/21 02:01:29;;;;;;;8.10;4.18;;;14.20;99.90;;;;;;5059650;28;20410;-73
2023/05/21 02:03:55;;;;;;;9.70;4.85;;;14.20;99.90;;;;;;5049203;28;20077;-73
2023/05/21 02:06:21;;;;;;;10.18;4.60;;;14.10;99.90;;;;;;5068480;28;20409;-73
2023/05/21 02:08:47;;;;;;;8.88;4.60;;;14.10;99.90;;;;;;5050535;28;20120;-73
2023/05/21 02:11:12;;;;;;;11.25;4.93;;;14.10;99.90;;;;;;5063008;28;20112;-72
2023/05/21 02:13:41;;;;;;;8.00;4.47;;;14.20;99.90;;;;;;5026033;28;20040;-73
2023/05/21 02:16:14;;;;;;;8.98;4.57;;;14.20;99.90;;;;;;5051806;28;20460;-73
2023/05/21 02:18:42;;;;;;;11.30;4.55;;;14.10;99.90;;;;;;5050585;28;20112;-73
2023/05/21 02:21:10;;;;;;;10.38;4.57;;;14.00;99.90;;;;;;5061388;28;20627;-72
2023/05/21 02:23:36;;;;;;;8.90;4.53;;;14.20;99.90;;;;;;5047523;28;20402;-73
2023/05/21 02:26:02;;;;;;;8.02;4.25;;;14.10;99.90;;;;;;5030860;28;20045;-73
2023/05/21 02:28:28;;;;;;;8.93;4.60;;;14.20;99.90;;;;;;5048017;28;20044;-73
2023/05/21 02:30:54;;;;;;;10.35;5.32;;;14.10;99.90;;;;;;5038438;28;20069;-73
2023/05/21 02:33:20;;;;;;;7.95;4.47;;;14.10;99.90;;;;;;5044858;28;20083;-72
2023/05/21 02:35:47;;;;;;;9.18;4.93;;;14.20;99.90;;;;;;5032809;28;20241;-73
2023/05/21 02:38:13;;;;;;;8.65;4.50;;;14.10;99.90;;;;;;5037959;28;20555;-73
2023/05/21 02:40:39;;;;;;;11.15;5.20;;;14.20;99.90;;;;;;5044267;28;20049;-72
2023/05/21 02:43:04;;;;;;;11.32;4.53;;;14.10;99.90;;;;;;5046081;28;20051;-72
2023/05/21 02:45:30;;;;;;;10.13;4.80;;;14.10;99.90;;;;;;5051495;28;20045;-73
2023/05/21 02:47:56;;;;;;;8.35;4.93;;;14.10;99.90;;;;;;5035544;28;20045;-73
2023/05/21 02:50:22;;;;;;;8.27;4.47;;;14.10;99.90;;;;;;5031175;28;20453;-73
2023/05/21 02:52:48;;;;;;;10.68;5.45;;;14.10;99.90;;;;;;5043373;28;20048;-72
2023/05/21 02:55:13;;;;;;;7.97;4.72;;;14.10;99.90;;;;;;5051198;28;20049;-72
2023/05/21 02:57:39;;;;;;;9.70;4.95;;;14.10;99.90;;;;;;5039005;28;20681;-72
2023/05/21 03:00:08;;;;;;;9.15;4.85;;;14.10;99.90;;;;;;5064835;28;20121;-73
2023/05/21 03:02:34;;;;;;;10.38;5.00;;;14.00;99.90;;;;;;5051632;28;20053;-73
2023/05/21 03:05:00;;;;;;;9.50;4.85;;;14.00;99.90;;;;;;5040582;28;20052;-73
2023/05/21 03:07:25;;;;;;;9.05;5.18;;;14.10;99.90;;;;;;5055454;28;20045;-73
2023/05/21 03:09:51;;;;;;;8.98;4.93;;;14.10;99.90;;;;;;5038970;28;20056;-73
2023/05/21 03:12:16;;;;;;;10.93;4.93;;;14.00;99.90;;;;;;5041328;28;20037;-72
2023/05/21 03:14:43;;;;;;;10.73;4.95;;;14.00;99.90;;;;;;5055918;28;20037;-73
2023/05/21 03:17:12;;;;;;;8.88;4.78;;;14.00;99.90;;;;;;5052463;28;20060;-73
2023/05/21 03:19:41;;;;;;;12.75;5.32;;;14.10;99.90;;;;;;5055696;28;20040;-73
2023/05/21 03:22:07;;;;;;;8.70;5.28;;;14.00;99.90;;;;;;5041716;28;20052;-73
2023/05/21 03:24:34;;;;;;;11.23;5.03;;;14.00;99.90;;;;;;5035365;28;20049;-73
2023/05/21 03:27:05;;;;;;;11.18;5.45;;;14.00;99.90;;;;;;5045110;28;20091;-72
2023/05/21 03:29:30;;;;;;;8.55;4.60;;;13.90;99.90;;;;;;5052067;28;20444;-72
2023/05/21 03:31:56;;;;;;;9.77;5.55;;;13.90;99.90;;;;;;5039449;28;20029;-73
2023/05/21 03:34:22;;;;;;;11.95;5.22;;;13.90;99.90;;;;;;5035172;28;20033;-73
2023/05/21 03:36:49;;;;;;;10.18;5.43;;;13.80;99.90;;;;;;5033786;28;20125;-72
2023/05/21 03:39:14;;;;;;;9.60;5.00;;;13.80;99.90;;;;;;5037430;28;20045;-73
2023/05/21 03:41:40;;;;;;;9.35;4.30;;;13.80;99.90;;;;;;5040289;28;20375;-73
2023/05/21 03:44:06;;;;;;;9.82;4.88;;;13.80;99.90;;;;;;5039256;28;20573;-73
2023/05/21 03:46:32;;;;;;;10.13;5.05;;;13.80;99.90;;;;;;5046389;28;20496;-72
2023/05/21 03:48:58;;;;;;;9.43;4.78;;;13.80;99.90;;;;;;5045832;28;20086;-73
2023/05/21 03:51:23;;;;;;;11.73;5.30;;;13.80;99.90;;;;;;5046883;28;20043;-72
2023/05/21 03:53:50;;;;;;;9.90;5.00;;;13.80;99.90;;;;;;5034963;28;20049;-72
2023/05/21 03:56:16;;;;;;;11.13;5.82;;;13.90;99.90;;;;;;5033201;28;20037;-73
2023/05/21 03:58:41;;;;;;;9.07;5.18;;;13.80;99.90;;;;;;5051869;28;20124;-72
2023/05/21 04:01:07;;;;;;;10.60;5.60;;;13.70;99.90;;;;;;5034863;28;20033;-72
2023/05/21 04:03:34;;;;;;;10.05;5.43;;;13.80;99.90;;;;;;5033735;28;20159;-73
2023/05/21 04:06:00;;;;;;;11.50;5.07;;;13.80;99.90;;;;;;5034515;28;20402;-72
2023/05/21 04:08:26;;;;;;;8.82;4.63;;;13.70;99.90;;;;;;5036857;28;20122;-72
2023/05/21 04:10:52;;;;;;;9.52;4.95;;;13.80;99.90;;;;;;5065675;28;20481;-73
2023/05/21 04:13:17;;;;;;;8.52;5.05;;;13.80;99.90;;;;;;5051287;28;20037;-72
2023/05/21 04:15:45;;;;;;;11.50;5.20;;;13.70;99.90;;;;;;5053296;28;20037;-72
2023/05/21 04:18:15;;;;;;;7.63;4.60;;;13.70;99.90;;;;;;5043072;28;20437;-72
2023/05/21 04:20:41;;;;;;;9.60;4.63;;;13.70;99.90;;;;;;5033159;28;20124;-72
2023/05/21 04:23:08;;;;;;;9.95;4.72;;;13.80;99.90;;;;;;5020508;28;20053;-73
2023/05/21 04:25:33;;;;;;;10.43;5.05;;;13.90;99.90;;;;;;5049840;28;20092;-73
2023/05/21 04:27:59;;;;;;;9.88;4.70;;;13.80;99.90;;;;;;5046215;28;20076;-73
2023/05/21 04:30:25;;;;;;;10.20;4.88;;;13.80;99.90;;;;;;5068847;28;20041;-72
2023/05/21 04:32:51;;;;;;;14.00;5.32;;;13.80;99.90;;;;;;5051971;28;20095;-72
2023/05/21 04:35:17;;;;;;;12.98;5.22;;;13.80;99.90;;;;;;5069838;28;20072;-73
2023/05/21 04:37:44;;;;;;;11.00;4.75;;;13.90;99.90;;;;;;5050961;28;20041;-72
2023/05/21 04:40:23;;;;;;;10.55;5.22;;;13.90;99.90;;;;;;5035166;28;20041;-73
2023/05/21 04:42:49;;;;;;;10.88;5.85;;;13.90;99.90;;;;;;5047229;28;20497;-73
2023/05/21 04:45:16;;;;;;;9.35;4.82;;;13.90;99.90;;;;;;5068617;28;20041;-73
2023/05/21 04:47:42;;;;;;;10.25;4.93;;;13.90;99.90;;;;;;5050563;28;20413;-73
2023/05/21 04:50:09;;;;;;;11.18;5.05;;;13.80;99.90;;;;;;5052523;28;20045;-73
2023/05/21 04:52:35;;;;;;;9.35;4.47;;;13.90;99.90;;;;;;5037146;28;20641;-73
2023/05/21 04:55:02;;;;;;;9.55;4.75;;;13.80;99.90;;;;;;5032916;28;20037;-73
2023/05/21 04:57:28;;;;;;;11.48;5.03;;;13.90;99.90;;;;;;5044542;28;20439;-72
2023/05/21 04:59:54;;;;;;;9.95;4.40;;;13.90;99.90;;;;;;5069085;28;20047;-72
2023/05/21 05:02:19;;;;;;;10.68;4.82;;;13.90;99.90;;;;;;5046570;28;20485;-71
2023/05/21 05:04:45;;;;;;;10.80;5.28;;;13.90;99.90;;;;;;5050829;28;20048;-71
2023/05/21 05:07:11;;;;;;;8.73;4.43;;;14.00;99.90;;;;;;5051349;28;20044;-72
2023/05/21 05:09:36;;;;;;;12.15;5.50;;;13.90;99.90;;;;;;5033639;28;20052;-71
2023/05/21 05:12:02;;;;;;;10.38;4.80;;;14.00;99.90;;;;;;5015855;28;20112;-71
2023/05/21 05:14:28;;;;;;;9.43;3.92;;;14.00;99.90;;;;;;5048313;28;20068;-71
2023/05/21 05:16:58;;;;;;;8.82;3.67;;;14.00;99.90;;;;;;5033548;28;20077;-71
2023/05/21 05:19:24;;;;;;;12.20;5.20;;;14.10;99.90;;;;;;5047918;28;20044;-72
2023/05/21 05:21:49;;;;;;;11.18;4.47;;;14.10;99.90;;;;;;5062971;28;20580;-72
2023/05/21 05:24:15;;;;;;;10.40;4.70;;;14.20;99.90;;;;;;5045382;28;20055;-72
2023/05/21 05:26:40;;;;;;;10.90;4.97;;;14.10;99.90;;;;;;5052277;28;20552;-72
2023/05/21 05:29:06;;;;;;;11.07;5.40;;;14.10;99.90;;;;;;5051971;28;20051;-73
2023/05/21 05:31:31;;;;;;;12.52;6.00;;;14.10;99.90;;;;;;5046400;28;20033;-72
2023/05/21 05:33:57;;;;;;;8.50;4.25;;;14.10;99.90;;;;;;5050279;28;20040;-72
2023/05/21 05:36:23;;;;;;;8.70;4.10;;;14.10;99.90;;;;;;5051662;28;20036;-73
2023/05/21 05:38:48;;;;;;;8.02;3.95;;;14.20;99.90;;;;;;5016794;28;20033;-72
2023/05/21 05:41:14;;;;;;;8.52;4.05;;;14.30;99.90;;;;;;5046246;28;20583;-72
2023/05/21 05:43:39;;;;;;;9.15;3.88;;;14.30;99.90;;;;;;5043443;28;20040;-72
2023/05/21 05:46:05;;;;;;;9.95;4.35;;;14.40;99.90;;;;;;5047794;28;20168;-73
2023/05/21 05:48:31;;;;;;;12.20;4.20;;;14.40;99.90;;;;;;5030944;28;20049;-73
2023/05/21 05:50:56;;;;;;;9.32;4.55;;;14.40;99.90;;;;;;5021938;28;20049;-73
2023/05/21 05:53:22;;;;;;;8.90;4.20;;;14.30;99.90;;;;;;5027989;28;20090;-73
2023/05/21 05:55:48;;;;;;;9.82;4.10;;;14.40;99.90;;;;;;5023439;28;20049;-74
2023/05/21 05:58:13;;;;;;;10.10;4.30;;;14.50;99.90;;;;;;5041134;28;20128;-74
2023/05/21 06:00:39;;;;;;;7.60;3.60;;;14.40;99.90;;;;;;5029303;28;20409;-74
2023/05/21 06:03:05;;;;;;;11.07;4.63;;;14.40;99.90;;;;;;5024368;28;20040;-72
2023/05/21 06:05:30;;;;;;;9.18;3.92;;;14.50;99.90;;;;;;5022507;28;20041;-71
2023/05/21 06:07:56;;;;;;;8.27;4.40;;;14.60;99.90;;;;;;5031692;28;20048;-73
2023/05/21 06:10:22;;;;;;;10.63;4.78;;;14.50;99.90;;;;;;5027647;28;20071;-73
2023/05/21 06:12:47;;;;;;;11.02;4.50;;;14.50;99.90;;;;;;5031656;28;20041;-72
2023/05/21 06:15:18;;;;;;;10.18;4.07;;;14.50;99.90;;;;;;5024341;28;20041;-72
2023/05/21 06:17:43;;;;;;;8.38;3.60;;;14.50;99.90;;;;;;5039171;28;20052;-72
2023/05/21 06:20:10;;;;;;;8.30;4.15;;;14.60;99.90;;;;;;5022567;28;20520;-72
2023/05/21 06:22:39;;;;;;;8.52;3.88;;;14.50;99.90;;;;;;5024907;28;20481;-73
2023/05/21 06:25:05;;;;;;;10.70;4.47;;;14.60;99.90;;;;;;5022598;28;20037;-73
2023/05/21 06:27:32;;;;;;;9.43;4.60;;;14.60;99.90;;;;;;5026894;28;20505;-73
2023/05/21 06:29:57;;;;;;;9.10;3.95;;;14.60;99.90;;;;;;5022321;28;20088;-72
2023/05/21 06:32:24;;;;;;;13.60;4.53;;;14.60;99.90;;;;;;5033216;28;20047;-72
2023/05/21 06:34:49;;;;;;;10.80;4.50;;;14.60;99.90;;;;;;5031384;28;20044;-74
2023/05/21 06:37:20;;;;;;;8.85;4.10;;;14.60;99.90;;;;;;5043110;28;20043;-73
2023/05/21 06:39:45;;;;;;;8.63;4.32;;;14.60;99.90;;;;;;5025744;28;20044;-73
2023/05/21 06:42:11;;;;;;;9.07;3.90;;;14.60;99.90;;;;;;5058039;28;20400;-73
2023/05/21 06:44:36;;;;;;;11.02;4.15;;;14.70;99.90;;;;;;5055003;28;20045;-73
2023/05/21 06:47:02;;;;;;;11.07;4.30;;;14.70;99.90;;;;;;5043980;28;20171;-73
2023/05/21 06:49:28;;;;;;;9.50;4.22;;;14.70;99.90;;;;;;5051867;28;20033;-73
2023/05/21 06:51:53;;;;;;;9.48;4.47;;;14.80;99.90;;;;;;5035119;28;20191;-74
2023/05/21 06:54:19;;;;;;;11.00;4.47;;;14.80;99.90;;;;;;5034241;28;20049;-73
2023/05/21 06:56:45;;;;;;;8.23;4.78;;;14.80;99.90;;;;;;5031607;28;20045;-73
2023/05/21 06:59:10;;;;;;;12.65;4.82;;;14.80;99.90;;;;;;5027606;28;20040;-73
2023/05/21 07:01:41;;;;;;;8.45;4.50;;;14.80;99.90;;;;;;5029637;28;20048;-73
2023/05/21 07:04:07;;;;;;;10.93;5.53;;;14.90;99.90;;;;;;5025709;28;20670;-73
2023/05/21 07:06:33;;;;;;;10.82;4.60;;;14.90;99.90;;;;;;5036350;28;20044;-73
2023/05/21 07:08:59;;;;;;;9.90;4.63;;;14.90;99.90;;;;;;5031795;28;20175;-73
2023/05/21 07:11:27;;;;;;;9.68;4.25;;;15.00;99.90;;;;;;5034608;28;20447;-75
2023/05/21 07:13:54;;;;;;;11.60;4.65;;;14.90;99.90;;;;;;5038131;28;20041;-74
2023/05/21 07:16:20;;;;;;;10.23;4.25;;;14.90;99.90;;;;;;5026107;28;20777;-75
2023/05/21 07:18:45;;;;;;;11.90;4.20;;;15.00;99.90;;;;;;5055721;28;20041;-72
2023/05/21 07:21:11;;;;;;;8.90;4.28;;;15.00;99.90;;;;;;5018302;28;20683;-73
2023/05/21 07:23:36;;;;;;;9.48;4.63;;;15.00;99.90;;;;;;5024845;28;20043;-73
2023/05/21 07:26:02;;;;;;;11.43;4.55;;;15.10;99.90;;;;;;5032741;28;20103;-73
2023/05/21 07:28:28;;;;;;;12.43;4.45;;;15.10;99.90;;;;;;5023237;28;20729;-72
2023/05/21 07:30:53;;;;;;;11.73;4.97;;;15.20;99.90;;;;;;5036996;28;20044;-73
2023/05/21 07:33:19;;;;;;;10.43;4.95;;;15.20;99.90;;;;;;5028436;28;20405;-73
2023/05/21 07:35:45;;;;;;;9.23;4.95;;;15.20;99.90;;;;;;5027085;28;20409;-72
2023/05/21 07:38:10;;;;;;;8.40;4.57;;;15.30;99.90;;;;;;5046299;28;20044;-73
2023/05/21 07:40:36;;;;;;;7.80;4.13;;;15.30;99.90;;;;;;5024471;28;20140;-73
2023/05/21 07:43:01;;;;;;;11.90;4.47;;;15.40;99.90;;;;;;5038957;28;20044;-73
2023/05/21 07:45:27;;;;;;;10.23;4.30;;;15.40;99.90;;;;;;5025931;28;20546;-73
2023/05/21 07:47:53;;;;;;;8.80;4.75;;;15.40;99.90;;;;;;5036925;28;20075;-73
2023/05/21 07:50:18;;;;;;;12.43;4.75;;;15.50;99.90;;;;;;5033515;28;20040;-72
2023/05/21 07:52:44;;;;;;;9.88;5.05;;;15.60;99.90;;;;;;5040647;28;20717;-73
2023/05/21 07:55:10;;;;;;;8.32;4.53;;;15.60;99.90;;;;;;5028290;28;20421;-73
2023/05/21 07:57:35;;;;;;;11.35;4.78;;;15.60;99.90;;;;;;5031923;28;20627;-73
2023/05/21 08:00:04;;;;;;;11.48;5.10;;;15.70;99.90;;;;;;5024321;28;20622;-73
2023/05/21 08:02:29;;;;;;;8.35;4.55;;;15.70;99.90;;;;;;5023426;28;20060;-73
2023/05/21 08:04:55;;;;;;;9.27;4.45;;;15.80;99.90;;;;;;5029652;28;20037;-73
2023/05/21 08:07:20;;;;;;;10.60;4.80;;;15.70;99.90;;;;;;5052287;28;20450;-73
2023/05/21 08:09:46;;;;;;;10.30;4.95;;;15.80;99.90;;;;;;5050807;28;20053;-73
2023/05/21 08:12:14;;;;;;;10.15;4.43;;;15.90;99.90;;;;;;5033372;28;20060;-74
2023/05/21 08:14:40;;;;;;;10.25;4.85;;;15.90;99.90;;;;;;5068050;28;20048;-74
2023/05/21 08:17:09;;;;;;;11.43;4.78;;;15.90;99.90;;;;;;5035047;28;20119;-74
2023/05/21 08:19:35;;;;;;;12.40;4.43;;;16.00;99.90;;;;;;5053479;28;20408;-74
2023/05/21 08:22:00;;;;;;;8.95;4.38;;;16.00;99.90;;;;;;5042830;28;20045;-74
2023/05/21 08:24:26;;;;;;;8.85;4.40;;;16.10;99.90;;;;;;5034623;28;20049;-74
2023/05/21 08:26:51;;;;;;;9.45;4.57;;;16.10;99.90;;;;;;5042113;28;20045;-75
2023/05/21 08:29:17;;;;;;;9.10;4.70;;;16.10;99.90;;;;;;5054549;28;20064;-74
2023/05/21 08:31:42;;;;;;;9.88;5.60;;;16.20;99.90;;;;;;5039075;28;20045;-74
2023/05/21 08:34:08;;;;;;;10.90;5.30;;;16.30;99.90;;;;;;5034465;28;20059;-74
2023/05/21 08:36:34;;;;;;;9.35;5.35;;;16.30;99.90;;;;;;5050225;28;20037;-74
2023/05/21 08:39:00;;;;;;;10.90;5.18;;;16.20;99.90;;;;;;5052941;28;20045;-73
2023/05/21 08:41:28;;;;;;;9.52;4.68;;;16.30;99.90;;;;;;5063712;28;20444;-73
2023/05/21 08:44:00;;;;;;;11.38;5.53;;;16.40;99.90;;;;;;5051671;28;20500;-74
2023/05/21 08:46:34;;;;;;;11.98;5.47;;;16.50;99.90;;;;;;5053192;28;20396;-73
2023/05/21 08:49:02;;;;;;;10.13;4.88;;;16.60;99.90;;;;;;5053132;28;20129;-73
2023/05/21 08:51:29;;;;;;;11.00;5.22;;;16.60;99.90;;;;;;5052760;28;20115;-73
2023/05/21 08:53:56;;;;;;;11.20;4.88;;;16.70;99.90;;;;;;5055413;28;20124;-73
2023/05/21 08:56:23;;;;;;;11.30;5.07;;;16.80;99.90;;;;;;5043537;28;20493;-74
2023/05/21 08:58:50;;;;;;;10.82;5.53;;;16.90;99.90;;;;;;5043761;28;20045;-73
2023/05/21 09:01:18;;;;;;;12.10;4.97;;;17.00;99.90;;;;;;5049136;28;20178;-73
2023/05/21 09:03:45;;;;;;;11.02;4.63;;;17.20;99.90;;;;;;5033106;28;20045;-73
2023/05/21 09:06:15;;;;;;;9.68;4.75;;;17.40;99.90;;;;;;5036010;28;20040;-73
2023/05/21 09:08:46;;;;;;;10.65;5.43;;;17.40;99.90;;;;;;5051542;28;20501;-74
2023/05/21 09:11:13;;;;;;;10.38;4.53;;;17.50;99.90;;;;;;5050635;28;20051;-74
2023/05/21 09:13:40;;;;;;;9.38;4.45;;;17.50;99.90;;;;;;5062258;28;20553;-73
2023/05/21 09:16:06;;;;;;;8.38;4.32;;;17.60;99.90;;;;;;5051281;28;20052;-73
2023/05/21 09:18:32;;;;;;;9.25;4.55;;;17.40;99.90;;;;;;5051733;28;20326;-73
2023/05/21 09:21:18;;;;;;;9.85;4.70;;;17.30;99.90;;;;;;5044522;28;20455;-73
2023/05/21 09:23:44;;;;;;;9.88;4.30;;;17.30;99.90;;;;;;5049582;28;20048;-73
2023/05/21 09:26:11;;;;;;;13.15;4.72;;;17.30;99.90;;;;;;5050849;28;20036;-74
2023/05/21 09:28:37;;;;;;;8.45;3.90;;;17.30;99.90;;;;;;5048798;28;20056;-73
2023/05/21 09:31:02;;;;;;;9.85;4.60;;;17.50;99.90;;;;;;5042194;28;20029;-73
2023/05/21 09:33:28;;;;;;;10.32;5.07;;;17.50;99.90;;;;;;5032922;28;20397;-74
2023/05/21 09:35:54;;;;;;;10.45;4.03;;;17.60;99.90;;;;;;5048449;28;20064;-73
2023/05/21 09:38:23;;;;;;;11.20;4.70;;;17.60;99.90;;;;;;5033245;28;20041;-74
2023/05/21 09:40:49;;;;;;;8.27;4.18;;;17.60;99.90;;;;;;5051141;28;20253;-73
2023/05/21 09:43:15;;;;;;;7.32;3.40;;;17.70;99.90;;;;;;5047444;28;20049;-73
2023/05/21 09:45:56;;;;;;;10.38;4.70;;;17.70;99.90;;;;;;5051720;28;20055;-73
2023/05/21 09:48:33;;;;;;;9.38;4.30;;;17.70;99.90;;;;;;5046969;28;20120;-74
2023/05/21 09:51:15;;;;;;;9.15;4.15;;;17.70;99.90;;;;;;5048937;28;20032;-73
2023/05/21 09:53:48;;;;;;;10.68;4.40;;;17.80;99.90;;;;;;5051503;28;20529;-73
2023/05/21 09:56:14;;;;;;;11.25;4.90;;;17.80;99.90;;;;;;5037386;28;20120;-73
2023/05/21 09:58:39;;;;;;;8.73;4.80;;;17.80;99.90;;;;;;5047728;28;20137;-73
2023/05/21 10:01:07;;;;;;;9.10;4.55;;;17.90;99.90;;;;;;5050895;28;20044;-73
2023/05/21 10:03:36;;;;;;;9.98;4.47;;;18.00;99.90;;;;;;5049510;28;20038;-73
2023/05/21 10:06:02;;;;;;;11.32;4.50;;;18.00;99.90;;;;;;5063318;28;20077;-74
2023/05/21 10:08:31;;;;;;;9.90;4.40;;;18.10;99.90;;;;;;5055540;28;20402;-73
2023/05/21 10:10:57;;;;;;;10.55;4.25;;;18.20;99.90;;;;;;5036241;28;20044;-73
2023/05/21 10:13:23;;;;;;;11.68;4.68;;;18.30;99.90;;;;;;5066506;28;20044;-73
2023/05/21 10:15:58;;;;;;;8.23;4.35;;;18.40;99.90;;;;;;5052107;28;20066;-74
2023/05/21 10:18:23;;;;;;;9.07;4.10;;;18.60;99.90;;;;;;5055401;28;20102;-73
2023/05/21 10:20:50;;;;;;;10.13;4.50;;;18.60;99.90;;;;;;5030950;28;20136;-73
2023/05/21 10:23:18;;;;;;;8.70;4.28;;;18.70;99.90;;;;;;5053598;28;20063;-73
2023/05/21 10:25:44;;;;;;;9.55;4.85;;;18.90;99.90;;;;;;5037410;28;20166;-74
2023/05/21 10:28:15;;;;;;;10.13;4.97;;;18.90;99.90;;;;;;5036879;28;20042;-74
2023/05/21 10:30:41;;;;;;;10.65;4.30;;;19.00;99.90;;;;;;5037764;28;20029;-74
2023/05/21 10:33:07;;;;;;;9.65;4.53;;;19.10;99.90;;;;;;5051658;28;20493;-74
2023/05/21 10:35:33;;;;;;;9.40;4.28;;;19.20;99.90;;;;;;5044404;28;20040;-74
2023/05/21 10:38:02;;;;;;;10.55;5.78;;;19.40;99.90;;;;;;5049155;28;20045;-74
2023/05/21 10:40:28;;;;;;;10.35;5.57;;;19.50;99.90;;;;;;5048688;28;20029;-74
2023/05/21 10:43:13;;;;;;;9.18;4.80;;;19.50;99.90;;;;;;5042668;28;20044;-74
2023/05/21 10:46:20;;;;;;;9.82;4.65;;;19.60;99.90;;;;;;5063940;28;20056;-74
2023/05/21 10:49:12;;;;;;;9.57;4.10;;;19.70;99.90;;;;;;5045389;28;20385;-74
2023/05/21 10:52:07;;;;;;;10.27;5.03;;;19.70;99.90;;;;;;5039061;28;20509;-76
2023/05/21 10:54:32;;;;;;;8.13;4.72;;;19.80;99.90;;;;;;5032781;28;20046;-75
2023/05/21 10:57:23;;;;;;;10.98;6.70;;;19.90;99.90;;;;;;5043887;28;20405;-85
2023/05/21 10:59:50;;;;;;;10.82;6.57;;;19.90;99.90;;;;;;5037013;28;20049;-86
2023/05/21 11:02:18;;;;;;;13.43;6.22;;;19.90;99.90;;;;;;5066112;28;20037;-85
2023/05/21 11:04:44;;;;;;;11.60;5.70;;;20.10;99.90;;;;;;5054752;28;20501;-86
2023/05/21 11:07:12;;;;;;;11.05;6.47;;;20.00;99.90;;;;;;5034560;28;20430;-85
2023/05/21 11:09:37;;;;;;;11.90;6.90;;;20.00;99.90;;;;;;5034066;28;20045;-87
2023/05/21 11:12:03;;;;;;;11.90;6.97;;;20.10;99.90;;;;;;5048760;28;20398;-73
2023/05/21 11:14:55;;;;;;;12.23;7.38;;;20.00;99.90;;;;;;5035864;28;20037;-74
2023/05/21 11:17:38;;;;;;;;;;;20.00;99.90;;;;;;5017442;28;20048;-74
2023/05/21 11:20:07;;;;;;;13.00;7.95;;;20.00;99.90;;;;;;5033397;28;19921;-74
2023/05/21 11:22:35;;;;;;;15.00;8.13;;;19.90;99.90;;;;;;5053684;28;20053;-74
2023/05/21 11:25:01;;;;;;;12.15;7.80;;;19.90;99.90;;;;;;5067807;28;20049;-73
2023/05/21 11:27:37;;;;;;;10.43;6.05;;;19.90;99.90;;;;;;5052695;28;20080;-74
2023/05/21 11:30:13;;;;;;;16.05;8.38;;;19.90;99.90;;;;;;5047871;28;20037;-74
2023/05/21 11:33:00;;;;;;;12.48;7.18;;;20.00;99.90;;;;;;5052753;28;20052;-74
2023/05/21 11:35:26;;;;;;;11.45;8.32;;;20.00;99.90;;;;;;5035452;28;20486;-74
2023/05/21 11:37:55;;;;;;;12.35;8.70;;;20.00;99.90;;;;;;5034615;28;20045;-74
2023/05/21 11:40:26;;;;;;;14.90;7.78;;;20.20;99.90;;;;;;5062054;28;20435;-74
2023/05/21 11:42:55;;;;;;;13.48;7.68;;;20.20;99.90;;;;;;5037927;28;20045;-74
2023/05/21 11:45:23;;;;;;;16.33;8.48;;;20.20;99.90;;;;;;5034963;28;20042;-74
2023/05/21 11:47:50;;;;;;;13.23;7.45;;;20.30;99.90;;;;;;5059824;28;20046;-74
2023/05/21 11:50:17;;;;;;;12.63;6.57;;;20.30;99.90;;;;;;5048095;28;20053;-74
2023/05/21 11:52:44;;;;;;;9.07;5.03;;;20.40;99.90;;;;;;5043465;28;20053;-74
2023/05/21 11:55:10;;;;;;;14.25;6.55;;;20.50;99.90;;;;;;5049897;28;20486;-74
2023/05/21 11:57:39;;;;;;;12.15;7.05;;;20.50;99.90;;;;;;5040297;28;20469;-74
2023/05/21 12:00:12;;;;;;;12.70;6.68;;;20.50;99.90;;;;;;5037890;28;20041;-75
2023/05/21 12:02:43;;;;;;;13.10;7.60;;;20.50;99.90;;;;;;5031631;28;20045;-75
2023/05/21 12:05:09;;;;;;;12.27;6.75;;;20.70;99.90;;;;;;5051111;28;20497;-74
2023/05/21 12:07:35;;;;;;;14.32;7.72;;;20.70;99.90;;;;;;5039406;28;20056;-74
2023/05/21 12:10:00;;;;;;;13.07;7.68;;;20.70;99.90;;;;;;5061429;28;20090;-74
2023/05/21 12:12:27;;;;;;;12.65;7.20;;;20.70;99.90;;;;;;5041392;28;20119;-74
2023/05/21 12:14:54;;;;;;;12.73;7.65;;;20.60;99.90;;;;;;5032060;28;20047;-74
2023/05/21 12:17:24;;;;;;;14.90;8.45;;;20.40;99.90;;;;;;5033513;28;20056;-74
2023/05/21 12:19:52;;;;;;;12.75;8.15;;;20.40;99.90;;;;;;5060541;28;20374;-74
2023/05/21 12:22:18;;;;;;;11.52;7.25;;;20.30;99.90;;;;;;5044954;28;20040;-74
2023/05/21 12:24:44;;;;;;;12.43;7.63;;;20.30;99.90;;;;;;5031505;28;20048;-74
2023/05/21 12:27:12;;;;;;;12.07;6.50;;;20.40;99.90;;;;;;5033278;28;20485;-75
2023/05/21 12:29:42;;;;;;;16.40;8.05;;;20.50;99.90;;;;;;5033210;28;20033;-74
2023/05/21 12:32:09;;;;;;;13.43;7.85;;;20.50;99.90;;;;;;5060156;28;20036;-74
2023/05/21 12:34:51;;;;;;;13.30;7.15;;;20.30;99.90;;;;;;5046947;28;20033;-75
2023/05/21 12:37:24;;;;;;;14.35;7.43;;;20.50;99.90;;;;;;5045911;28;20060;-74
2023/05/21 12:39:54;;;;;;;15.25;8.02;;;20.50;99.90;;;;;;5042951;28;20132;-74
2023/05/21 12:42:28;;;;;;;13.57;7.75;;;20.50;99.90;;;;;;5048465;28;20045;-74
2023/05/21 12:44:54;;;;;;;13.57;7.35;;;20.50;99.90;;;;;;5041878;28;20045;-74